createdAt,value
2017-10-02T00:00:05.565Z,18.63
2017-10-02T00:02:33.865Z,15.80
2017-10-02T00:05:02.579Z,14.67
2017-10-02T00:07:30.830Z,13.50
2017-10-02T00:09:59.413Z,14.83
2017-10-02T00:12:27.669Z,13.77
2017-10-02T00:14:55.923Z,18.00
2017-10-02T00:17:24.961Z,14.53
2017-10-02T00:19:53.210Z,14.23
2017-10-02T00:22:21.466Z,12.23
2017-10-02T00:24:49.742Z,15.30
2017-10-02T00:27:17.989Z,15.33
2017-10-02T00:29:46.238Z,13.23
2017-10-02T00:32:14.840Z,13.67
2017-10-02T00:34:43.085Z,11.43
2017-10-02T00:37:11.341Z,14.37
2017-10-02T00:39:39.617Z,11.80
2017-10-02T00:42:08.642Z,16.67
2017-10-02T00:44:36.885Z,12.63
2017-10-02T00:47:05.158Z,11.03
2017-10-02T00:49:33.406Z,13.30
2017-10-02T00:52:01.653Z,14.50
2017-10-02T00:54:30.141Z,13.50
2017-10-02T00:56:58.389Z,10.67
2017-10-02T00:59:26.757Z,14.37
2017-10-02T01:01:55.033Z,14.67
2017-10-02T01:04:23.285Z,12.17
2017-10-02T01:06:51.808Z,17.27
2017-10-02T01:09:20.085Z,15.60
2017-10-02T01:11:48.337Z,17.70
2017-10-02T01:14:16.590Z,15.27
2017-10-02T01:16:45.362Z,14.83
2017-10-02T01:19:13.646Z,19.03
2017-10-02T01:21:41.897Z,15.60
2017-10-02T01:24:10.173Z,13.77
2017-10-02T01:26:38.422Z,21.23
2017-10-02T01:29:06.677Z,15.00
2017-10-02T01:31:34.958Z,15.53
2017-10-02T01:34:03.973Z,19.93
2017-10-02T01:36:32.225Z,13.27
2017-10-02T01:39:00.810Z,12.93
2017-10-02T01:41:29.837Z,16.30
2017-10-02T01:43:58.094Z,15.57
2017-10-02T01:46:26.368Z,11.93
2017-10-02T01:48:57.581Z,12.73
2017-10-02T01:51:25.834Z,17.03
2017-10-02T01:53:54.106Z,12.37
2017-10-02T01:56:22.361Z,18.13
2017-10-02T01:58:50.610Z,14.17
2017-10-02T02:01:19.169Z,17.03
2017-10-02T02:03:47.417Z,13.83
2017-10-02T02:06:15.672Z,18.07
2017-10-02T02:08:44.366Z,16.73
2017-10-02T02:11:12.621Z,14.13
2017-10-02T02:13:40.874Z,15.80
2017-10-02T02:16:09.150Z,19.60
2017-10-02T02:18:37.404Z,13.83
2017-10-02T02:21:05.651Z,15.97
2017-10-02T02:23:34.278Z,15.20
2017-10-02T02:26:02.530Z,19.60
2017-10-02T02:28:30.790Z,16.13
2017-10-02T02:30:59.061Z,20.63
2017-10-02T02:33:27.314Z,17.67
2017-10-02T02:35:55.563Z,20.20
2017-10-02T02:38:23.842Z,15.97
2017-10-02T02:40:52.092Z,19.97
2017-10-02T02:43:20.338Z,18.97
2017-10-02T02:45:48.674Z,18.03
2017-10-02T02:48:16.929Z,18.20
2017-10-02T02:50:45.181Z,18.43
2017-10-02T02:53:13.451Z,15.50
2017-10-02T02:55:41.701Z,13.80
2017-10-02T02:58:09.957Z,13.40
2017-10-02T03:00:38.233Z,14.40
2017-10-02T03:03:06.488Z,13.60
2017-10-02T03:05:34.741Z,13.63
2017-10-02T03:08:03.338Z,20.93
2017-10-02T03:10:32.917Z,13.37
2017-10-02T03:13:01.249Z,15.10
2017-10-02T03:15:29.549Z,14.20
2017-10-02T03:17:57.773Z,16.23
2017-10-02T03:20:26.029Z,17.87
2017-10-02T03:22:54.306Z,12.77
2017-10-02T03:25:22.563Z,17.23
2017-10-02T03:27:51.578Z,17.33
2017-10-02T03:30:19.922Z,16.50
2017-10-02T03:32:48.944Z,16.40
2017-10-02T03:35:17.201Z,14.10
2017-10-02T03:37:46.244Z,16.40
2017-10-02T03:40:14.645Z,15.03
2017-10-02T03:42:42.889Z,16.20
2017-10-02T03:45:11.165Z,16.00
2017-10-02T03:47:39.426Z,16.43
2017-10-02T03:50:07.674Z,17.53
2017-10-02T03:52:37.221Z,17.63
2017-10-02T03:55:05.534Z,19.03
2017-10-02T03:57:33.785Z,16.87
2017-10-02T04:00:02.064Z,13.10
2017-10-02T04:02:30.322Z,13.73
2017-10-02T04:04:58.568Z,15.63
2017-10-02T04:07:26.837Z,21.53
2017-10-02T04:09:55.862Z,17.87
2017-10-02T04:12:24.407Z,12.57
2017-10-02T04:14:52.805Z,13.27
2017-10-02T04:17:21.824Z,13.57
2017-10-02T04:19:50.073Z,15.27
2017-10-02T04:22:18.696Z,14.57
2017-10-02T04:24:46.945Z,16.20
2017-10-02T04:27:15.201Z,16.27
2017-10-02T04:29:43.486Z,16.93
2017-10-02T04:32:12.506Z,15.60
2017-10-02T04:34:40.758Z,12.73
2017-10-02T04:37:09.969Z,15.90
2017-10-02T04:39:38.222Z,15.40
2017-10-02T04:42:07.255Z,14.63
2017-10-02T04:44:35.525Z,16.37
2017-10-02T04:47:03.779Z,13.77
2017-10-02T04:49:32.794Z,18.50
2017-10-02T04:52:01.074Z,14.87
2017-10-02T04:54:29.329Z,17.97
2017-10-02T04:56:58.342Z,20.40
2017-10-02T04:59:26.841Z,26.33
2017-10-02T05:01:55.097Z,17.97
2017-10-02T05:04:23.345Z,16.50
2017-10-02T05:06:52.545Z,19.70
2017-10-02T05:09:21.577Z,19.20
2017-10-02T05:11:49.826Z,20.33
2017-10-02T05:14:19.202Z,20.67
2017-10-02T05:16:47.453Z,15.70
2017-10-02T05:19:15.710Z,22.33
2017-10-02T05:21:44.060Z,20.57
2017-10-02T05:24:13.089Z,18.10
2017-10-02T05:26:41.345Z,21.27
2017-10-02T05:29:09.634Z,15.43
2017-10-02T05:31:37.890Z,18.07
2017-10-02T05:34:06.146Z,22.17
2017-10-02T05:36:34.418Z,29.63
2017-10-02T05:39:02.669Z,33.27
2017-10-02T05:41:30.921Z,16.33
2017-10-02T05:43:59.377Z,17.57
2017-10-02T05:46:27.625Z,15.43
2017-10-02T05:48:55.925Z,18.63
2017-10-02T05:51:24.202Z,20.20
2017-10-02T05:53:52.458Z,14.70
2017-10-02T05:56:20.708Z,20.83
2017-10-02T05:58:49.256Z,16.13
2017-10-02T06:01:17.494Z,15.93
2017-10-02T06:03:46.509Z,16.43
2017-10-02T06:08:49.660Z,17.57
2017-10-02T06:11:18.449Z,20.67
2017-10-02T06:13:46.693Z,23.13
2017-10-02T06:16:15.465Z,17.70
2017-10-02T06:18:44.502Z,18.03
2017-10-02T06:21:12.753Z,15.87
2017-10-02T06:23:41.001Z,18.53
2017-10-02T06:26:09.565Z,17.67
2017-10-02T06:28:37.817Z,21.77
2017-10-02T06:31:06.065Z,16.27
2017-10-02T06:33:34.344Z,16.27
2017-10-02T06:36:02.590Z,34.37
2017-10-02T06:38:31.733Z,18.63
2017-10-02T06:41:00.037Z,17.33
2017-10-02T06:43:28.278Z,17.93
2017-10-02T06:45:56.533Z,16.50
2017-10-02T06:48:25.045Z,15.63
2017-10-02T06:50:53.293Z,18.30
2017-10-02T06:53:22.310Z,17.73
2017-10-02T06:55:50.597Z,17.77
2017-10-02T06:58:18.833Z,16.03
2017-10-02T07:00:47.150Z,22.33
2017-10-02T07:03:15.440Z,12.63
2017-10-02T07:05:43.685Z,18.43
2017-10-02T07:08:11.938Z,18.83
2017-10-02T07:10:41.233Z,14.70
2017-10-02T07:13:10.255Z,15.87
2017-10-02T07:15:38.506Z,16.67
2017-10-02T07:18:07.306Z,23.67
2017-10-02T07:20:35.782Z,14.43
2017-10-02T07:23:04.801Z,14.80
2017-10-02T07:25:33.072Z,17.60
2017-10-02T07:28:01.374Z,15.03
2017-10-02T07:30:29.621Z,12.53
2017-10-02T07:32:58.112Z,14.23
2017-10-02T07:35:26.365Z,17.83
2017-10-02T07:37:55.386Z,15.37
2017-10-02T07:40:23.662Z,15.57
2017-10-02T07:42:51.916Z,12.80
2017-10-02T07:45:20.314Z,16.40
2017-10-02T07:47:48.570Z,12.63
2017-10-02T07:50:17.585Z,19.23
2017-10-02T07:52:45.839Z,14.33
2017-10-02T07:55:15.286Z,20.17
2017-10-02T07:57:43.542Z,11.83
2017-10-02T08:00:11.790Z,17.53
2017-10-02T08:02:40.067Z,13.00
2017-10-02T08:05:09.105Z,12.17
2017-10-02T08:07:37.366Z,12.70
2017-10-02T08:10:05.643Z,14.93
2017-10-02T08:12:33.898Z,12.47
2017-10-02T08:15:02.932Z,11.83
2017-10-02T08:17:31.329Z,12.30
2017-10-02T08:19:59.585Z,12.93
2017-10-02T08:22:27.986Z,11.80
2017-10-02T08:24:56.271Z,15.33
2017-10-02T08:27:24.513Z,13.47
2017-10-02T08:29:52.981Z,13.47
2017-10-02T08:32:21.238Z,16.50
2017-10-02T08:34:49.487Z,19.93
2017-10-02T08:37:17.966Z,11.53
2017-10-02T08:39:46.285Z,17.07
2017-10-02T08:42:14.593Z,12.60
2017-10-02T08:44:44.030Z,11.80
2017-10-02T08:47:12.309Z,13.87
2017-10-02T08:49:40.772Z,10.20
2017-10-02T08:52:10.077Z,20.00
2017-10-02T08:54:38.490Z,12.37
2017-10-02T08:57:06.760Z,21.40
2017-10-02T08:59:35.010Z,9.87
2017-10-02T09:02:04.108Z,15.40
2017-10-02T09:04:32.353Z,12.33
2017-10-02T09:07:01.577Z,13.87
2017-10-02T09:09:29.858Z,11.83
2017-10-02T09:11:58.186Z,15.83
2017-10-02T09:14:27.185Z,17.47
2017-10-02T09:16:56.661Z,23.63
2017-10-02T09:19:25.978Z,11.10
2017-10-02T09:21:54.989Z,19.83
2017-10-02T09:24:23.417Z,12.83
2017-10-02T09:26:51.661Z,12.73
2017-10-02T09:29:19.900Z,9.63
2017-10-02T09:31:48.933Z,9.80
2017-10-02T09:34:17.181Z,8.73
2017-10-02T09:36:45.430Z,11.10
2017-10-02T09:39:13.697Z,7.70
2017-10-02T09:41:41.952Z,6.33
2017-10-02T09:44:10.333Z,8.67
2017-10-02T09:46:39.117Z,6.73
2017-10-02T09:49:07.362Z,9.80
2017-10-02T09:51:35.617Z,5.90
2017-10-02T09:54:03.902Z,6.13
2017-10-02T09:56:32.145Z,9.67
2017-10-02T09:59:00.406Z,5.57
2017-10-02T10:01:28.679Z,5.30
2017-10-02T10:03:56.943Z,4.97
2017-10-02T10:06:25.190Z,5.80
2017-10-02T10:08:53.575Z,4.40
2017-10-02T10:11:22.587Z,3.73
2017-10-02T10:13:50.832Z,4.00
2017-10-02T10:16:19.104Z,7.93
2017-10-02T10:18:47.365Z,5.53
2017-10-02T10:21:17.557Z,8.90
2017-10-02T10:23:46.144Z,3.63
2017-10-02T10:26:14.382Z,3.17
2017-10-02T10:28:42.687Z,11.53
2017-10-02T10:31:11.175Z,10.43
2017-10-02T10:33:39.461Z,4.33
2017-10-02T10:36:07.726Z,4.10
2017-10-02T10:38:35.993Z,4.70
2017-10-02T10:41:04.312Z,3.60
2017-10-02T10:43:32.765Z,4.20
2017-10-02T10:46:01.030Z,3.30
2017-10-02T10:48:29.287Z,3.23
2017-10-02T10:50:57.517Z,11.80
2017-10-02T10:53:25.828Z,3.43
2017-10-02T10:55:54.287Z,6.00
2017-10-02T10:58:23.392Z,3.53
2017-10-02T11:00:52.570Z,5.67
2017-10-02T11:03:20.921Z,7.40
2017-10-02T11:05:49.313Z,3.47
2017-10-02T11:08:17.744Z,3.37
2017-10-02T11:10:46.013Z,3.67
2017-10-02T11:13:14.254Z,5.23
2017-10-02T11:15:42.734Z,6.73
2017-10-02T11:18:11.216Z,3.60
2017-10-02T11:20:39.646Z,4.20
2017-10-02T11:23:07.922Z,3.30
2017-10-02T11:25:36.168Z,5.33
2017-10-02T11:28:04.413Z,2.60
2017-10-02T11:30:32.678Z,4.00
2017-10-02T11:33:00.939Z,4.57
2017-10-02T11:35:29.177Z,2.23
2017-10-02T11:37:57.518Z,5.13
2017-10-02T11:40:25.753Z,2.60
2017-10-02T11:42:54.005Z,6.53
2017-10-02T11:45:23.041Z,3.37
2017-10-02T11:47:51.286Z,3.13
2017-10-02T11:50:19.529Z,3.73
2017-10-02T11:52:47.829Z,7.80
2017-10-02T11:55:16.901Z,2.90
2017-10-02T11:57:45.146Z,3.80
2017-10-02T12:00:13.470Z,4.73
2017-10-02T12:02:42.473Z,3.30
2017-10-02T12:05:11.494Z,3.57
2017-10-02T12:07:39.774Z,6.50
2017-10-02T12:10:08.029Z,4.40
2017-10-02T12:12:37.079Z,3.50
2017-10-02T12:15:05.499Z,4.83
2017-10-02T12:17:35.727Z,6.13
2017-10-02T12:20:03.951Z,2.40
2017-10-02T12:22:32.277Z,7.87
2017-10-02T12:25:01.294Z,2.63
2017-10-02T12:27:29.549Z,13.50
2017-10-02T12:29:58.581Z,3.67
2017-10-02T12:32:26.894Z,4.43
2017-10-02T12:34:55.139Z,2.83
2017-10-02T12:37:23.415Z,4.20
2017-10-02T12:39:51.751Z,9.10
2017-10-02T12:42:20.778Z,5.03
2017-10-02T12:44:49.153Z,6.77
2017-10-02T12:47:18.390Z,10.10
2017-10-02T12:49:46.633Z,2.87
2017-10-02T12:52:14.897Z,4.47
2017-10-02T12:54:43.141Z,3.37
2017-10-02T12:57:11.588Z,4.00
2017-10-02T12:59:39.855Z,4.20
2017-10-02T13:02:08.089Z,9.83
2017-10-02T13:04:36.430Z,9.43
2017-10-02T13:07:04.762Z,3.40
2017-10-02T13:09:33.013Z,6.37
2017-10-02T13:12:01.257Z,5.90
2017-10-02T13:14:29.525Z,4.90
2017-10-02T13:16:57.829Z,5.87
2017-10-02T13:19:26.061Z,4.37
2017-10-02T13:21:54.837Z,5.90
2017-10-02T13:24:23.290Z,4.07
2017-10-02T13:26:51.565Z,9.20
2017-10-02T13:29:19.982Z,5.10
2017-10-02T13:31:48.224Z,7.53
2017-10-02T13:34:16.487Z,9.70
2017-10-02T13:36:45.557Z,5.90
2017-10-02T13:39:13.809Z,2.77
2017-10-02T13:41:42.063Z,3.33
2017-10-02T13:44:10.322Z,4.23
2017-10-02T13:46:38.588Z,3.90
2017-10-02T13:49:06.810Z,2.73
2017-10-02T13:51:35.421Z,2.93
2017-10-02T13:54:03.645Z,2.83
2017-10-02T13:56:31.898Z,1.83
2017-10-02T13:59:00.169Z,2.23
2017-10-02T14:01:28.414Z,2.50
2017-10-02T14:03:56.661Z,6.87
2017-10-02T14:06:24.957Z,3.20
2017-10-02T14:08:53.317Z,7.80
2017-10-02T14:11:21.688Z,2.00
2017-10-02T14:13:50.317Z,1.67
2017-10-02T14:16:18.571Z,2.50
2017-10-02T14:18:46.801Z,3.53
2017-10-02T14:21:15.062Z,2.27
2017-10-02T14:23:43.813Z,1.67
2017-10-02T14:26:12.047Z,2.63
2017-10-02T14:28:41.121Z,3.37
2017-10-02T14:31:09.384Z,2.47
2017-10-02T14:33:37.665Z,3.43
2017-10-02T14:36:06.521Z,10.73
2017-10-02T14:38:34.765Z,2.53
2017-10-02T14:41:03.011Z,3.60
2017-10-02T14:43:31.350Z,3.60
2017-10-02T14:45:59.587Z,7.63
2017-10-02T14:48:28.594Z,4.07
2017-10-02T14:50:56.858Z,4.23
2017-10-02T14:53:25.869Z,5.20
2017-10-02T14:55:54.109Z,3.17
2017-10-02T14:58:22.456Z,3.40
2017-10-02T15:00:50.710Z,3.17
2017-10-02T15:03:18.962Z,5.70
2017-10-02T15:05:48.018Z,3.23
2017-10-02T15:08:16.306Z,8.53
2017-10-02T15:10:44.681Z,7.70
2017-10-02T15:13:12.950Z,4.87
2017-10-02T15:15:41.330Z,4.33
2017-10-02T15:18:10.742Z,5.90
2017-10-02T15:20:39.094Z,4.30
2017-10-02T15:23:07.358Z,4.00
2017-10-02T15:25:35.610Z,5.47
2017-10-02T15:28:04.654Z,4.23
2017-10-02T15:30:32.890Z,4.53
2017-10-02T15:33:01.186Z,3.40
2017-10-02T15:35:29.453Z,4.50
2017-10-02T15:37:58.073Z,3.87
2017-10-02T15:40:26.327Z,5.03
2017-10-02T15:42:54.736Z,3.23
2017-10-02T15:45:22.974Z,4.97
2017-10-02T15:47:51.231Z,5.37
2017-10-02T15:50:20.261Z,3.03
2017-10-02T15:52:48.509Z,2.70
2017-10-02T15:55:17.657Z,5.13
2017-10-02T15:57:45.925Z,3.00
2017-10-02T16:00:14.165Z,5.57
2017-10-02T16:02:42.441Z,6.43
2017-10-02T16:05:10.922Z,5.20
2017-10-02T16:07:39.177Z,4.43
2017-10-02T16:10:08.201Z,2.77
2017-10-02T16:12:36.478Z,2.97
2017-10-02T16:15:04.734Z,3.77
2017-10-02T16:17:33.746Z,2.80
2017-10-02T16:20:02.025Z,5.27
2017-10-02T16:22:30.274Z,4.37
2017-10-02T16:24:58.875Z,4.60
2017-10-02T16:27:27.336Z,10.60
2017-10-02T16:29:55.588Z,2.63
2017-10-02T16:32:23.838Z,2.47
2017-10-02T16:34:52.601Z,4.40
2017-10-02T16:37:21.018Z,4.60
2017-10-02T16:39:49.258Z,2.47
2017-10-02T16:42:17.533Z,4.00
2017-10-02T16:44:45.777Z,8.90
2017-10-02T16:47:14.797Z,2.50
2017-10-02T16:49:43.297Z,2.67
2017-10-02T16:52:11.541Z,3.33
2017-10-02T16:54:39.800Z,2.60
2017-10-02T16:57:08.196Z,3.97
2017-10-02T16:59:37.237Z,3.90
2017-10-02T17:02:05.465Z,4.47
2017-10-02T17:04:34.493Z,2.60
2017-10-02T17:07:02.741Z,2.93
2017-10-02T17:09:30.990Z,3.37
2017-10-02T17:11:59.638Z,3.13
2017-10-02T17:14:27.877Z,2.63
2017-10-02T17:16:56.112Z,5.07
2017-10-02T17:19:24.773Z,3.33
2017-10-02T17:21:53.063Z,4.63
2017-10-02T17:24:21.328Z,4.87
2017-10-02T17:26:49.917Z,6.43
2017-10-02T17:29:18.179Z,2.70
2017-10-02T17:31:46.441Z,2.90
2017-10-02T17:34:14.847Z,2.20
2017-10-02T17:36:43.093Z,3.20
2017-10-02T17:39:12.243Z,3.20
2017-10-02T17:41:40.698Z,4.20
2017-10-02T17:44:11.128Z,3.30
2017-10-02T17:46:39.363Z,3.57
2017-10-02T17:49:07.625Z,5.17
2017-10-02T17:51:36.092Z,4.33
2017-10-02T17:54:04.337Z,3.37
2017-10-02T17:56:33.978Z,4.03
2017-10-02T17:59:02.203Z,4.00
2017-10-02T18:01:30.458Z,5.20
2017-10-02T18:04:00.532Z,3.60
2017-10-02T18:06:28.820Z,5.20
2017-10-02T18:08:57.069Z,4.33
2017-10-02T18:11:25.329Z,5.57
2017-10-02T18:13:53.586Z,11.23
2017-10-02T18:16:22.033Z,3.07
2017-10-02T18:18:50.545Z,5.13
2017-10-02T18:21:19.546Z,4.53
2017-10-02T18:23:47.790Z,3.20
2017-10-02T18:26:16.199Z,7.40
2017-10-02T18:28:44.802Z,4.10
2017-10-02T18:31:13.255Z,3.00
2017-10-02T18:33:41.506Z,3.13
2017-10-02T18:36:09.883Z,7.30
2017-10-02T18:38:38.130Z,5.80
2017-10-02T18:41:07.503Z,3.67
2017-10-02T18:43:35.741Z,6.90
2017-10-02T18:46:04.121Z,8.07
2017-10-02T18:48:32.397Z,4.10
2017-10-02T18:51:00.877Z,3.83
2017-10-02T18:53:29.269Z,3.13
2017-10-02T18:55:57.594Z,3.00
2017-10-02T18:58:25.829Z,3.27
2017-10-02T19:00:54.086Z,2.43
2017-10-02T19:03:22.657Z,19.87
2017-10-02T19:05:50.933Z,2.10
2017-10-02T19:08:19.194Z,3.43
2017-10-02T19:10:47.449Z,2.40
2017-10-02T19:13:15.698Z,2.87
2017-10-02T19:15:44.717Z,2.57
2017-10-02T19:18:13.001Z,2.60
2017-10-02T19:20:41.249Z,3.17
2017-10-02T19:23:09.497Z,3.03
2017-10-02T19:25:38.041Z,2.47
2017-10-02T19:28:06.317Z,3.60
2017-10-02T19:30:34.589Z,2.30
2017-10-02T19:33:02.911Z,4.00
2017-10-02T19:35:31.141Z,1.80
2017-10-02T19:37:59.394Z,2.07
2017-10-02T19:40:27.664Z,3.70
2017-10-02T19:42:55.910Z,1.93
2017-10-02T19:45:24.153Z,3.90
2017-10-02T19:47:52.765Z,6.30
2017-10-02T19:50:21.040Z,2.83
2017-10-02T19:52:49.281Z,7.20
2017-10-02T19:55:17.556Z,6.50
2017-10-02T19:57:45.812Z,7.60
2017-10-02T20:00:14.825Z,3.93
2017-10-02T20:02:43.091Z,5.40
2017-10-02T20:05:16.305Z,6.70
2017-10-02T20:07:44.633Z,6.20
2017-10-02T20:10:12.917Z,4.03
2017-10-02T20:12:41.185Z,4.57
2017-10-02T20:15:09.477Z,5.93
2017-10-02T20:17:43.495Z,7.17
2017-10-02T20:20:12.427Z,5.50
2017-10-02T20:22:40.686Z,11.30
2017-10-02T20:25:08.961Z,8.67
2017-10-02T20:27:37.357Z,9.50
2017-10-02T20:30:05.597Z,5.80
2017-10-02T20:32:34.742Z,6.37
2017-10-02T20:35:03.018Z,8.23
2017-10-02T20:37:31.242Z,4.77
2017-10-02T20:39:59.488Z,6.67
2017-10-02T20:42:27.766Z,7.93
2017-10-02T20:44:56.909Z,6.57
2017-10-02T20:47:25.169Z,4.50
2017-10-02T20:49:54.826Z,5.37
2017-10-02T20:52:23.073Z,6.60
2017-10-02T20:54:52.442Z,5.97
2017-10-02T20:57:20.724Z,5.27
2017-10-02T20:59:48.957Z,5.37
2017-10-02T21:02:17.205Z,10.87
2017-10-02T21:04:45.477Z,5.40
2017-10-02T21:07:13.722Z,9.00
2017-10-02T21:09:41.961Z,8.13
2017-10-02T21:12:10.546Z,6.17
2017-10-02T21:14:38.795Z,5.57
2017-10-02T21:17:07.045Z,7.73
2017-10-02T21:19:35.321Z,10.83
2017-10-02T21:22:04.352Z,7.73
2017-10-02T21:24:32.651Z,7.53
2017-10-02T21:27:00.926Z,8.43
2017-10-02T21:29:29.170Z,5.23
2017-10-02T21:31:57.409Z,5.60
2017-10-02T21:34:26.265Z,5.83
2017-10-02T21:36:54.497Z,6.77
2017-10-02T21:39:23.551Z,4.50
2017-10-02T21:41:51.820Z,4.50
2017-10-02T21:44:21.340Z,14.30
2017-10-02T21:46:49.577Z,5.27
2017-10-02T21:49:17.844Z,7.57
2017-10-02T21:51:46.105Z,7.93
2017-10-02T21:54:14.350Z,6.80
2017-10-02T21:56:42.726Z,6.17
2017-10-02T21:59:10.964Z,9.07
2017-10-02T22:01:39.213Z,20.63
2017-10-02T22:04:07.482Z,5.70
2017-10-02T22:06:35.720Z,10.97
2017-10-02T22:09:03.986Z,6.33
2017-10-02T22:11:33.021Z,4.13
2017-10-02T22:14:02.029Z,6.60
2017-10-02T22:16:30.275Z,8.73
2017-10-02T22:18:58.597Z,6.83
2017-10-02T22:21:26.845Z,8.53
2017-10-02T22:23:55.093Z,10.47
2017-10-02T22:26:23.360Z,8.30
2017-10-02T22:28:51.602Z,5.63
2017-10-02T22:31:19.857Z,14.50
2017-10-02T22:33:48.884Z,6.33
2017-10-02T22:36:17.529Z,6.77
2017-10-02T22:38:46.539Z,8.17
2017-10-02T22:41:16.065Z,3.77
2017-10-02T22:43:44.306Z,7.57
2017-10-02T22:46:12.549Z,9.10
2017-10-02T22:48:40.804Z,11.00
2017-10-02T22:51:09.053Z,10.80
2017-10-02T22:53:37.305Z,11.70
2017-10-02T22:56:05.787Z,7.17
2017-10-02T22:58:34.032Z,11.00
2017-10-02T23:01:02.280Z,11.37
2017-10-02T23:03:30.719Z,9.63
2017-10-02T23:05:58.957Z,5.93
2017-10-02T23:08:27.204Z,5.27
2017-10-02T23:10:55.467Z,3.93
2017-10-02T23:13:24.475Z,5.60
2017-10-02T23:15:52.714Z,8.77
2017-10-02T23:18:20.978Z,9.47
2017-10-02T23:20:49.230Z,11.30
2017-10-02T23:23:17.478Z,6.10
2017-10-02T23:25:45.821Z,13.17
2017-10-02T23:28:14.067Z,10.50
2017-10-02T23:30:42.309Z,16.33
2017-10-02T23:33:10.570Z,8.87
2017-10-02T23:35:39.582Z,7.17
2017-10-02T23:38:08.241Z,9.60
2017-10-02T23:40:37.285Z,13.23
2017-10-02T23:43:05.529Z,17.13
2017-10-02T23:45:33.792Z,10.80
2017-10-02T23:48:02.249Z,9.43
2017-10-02T23:50:30.502Z,19.93
2017-10-02T23:52:58.746Z,8.30
2017-10-02T23:55:27.009Z,7.97
2017-10-02T23:57:56.022Z,12.50
